sensor_id;sensor_type;location;lat;lon;timestamp;pressure;altitude;pressure_sealevel;temperature;humidity
19576;BME280;41589;51.196;7.074;2024-01-11T00:04:56;100301.25;;;0.54;50.26
19576;BME280;41589;51.196;7.074;2024-01-11T00:09:57;100306.72;;;0.51;50.79
19576;BME280;41589;51.196;7.074;2024-01-11T00:14:57;100303.50;;;0.49;50.12
19576;BME280;41589;51.196;7.074;2024-01-11T00:19:59;100302.25;;;0.46;51.10
19576;BME280;41589;51.196;7.074;2024-01-11T00:24:59;100309.78;;;0.46;50.61
19576;BME280;41589;51.196;7.074;2024-01-11T00:29:59;100308.97;;;0.45;50.87
19576;BME280;41589;51.196;7.074;2024-01-11T00:35:00;100310.22;;;0.48;50.61
19576;BME280;41589;51.196;7.074;2024-01-11T00:40:00;100307.06;;;0.49;51.17
19576;BME280;41589;51.196;7.074;2024-01-11T00:45:00;100302.00;;;0.51;51.20
19576;BME280;41589;51.196;7.074;2024-01-11T00:50:01;100301.09;;;0.47;51.22
19576;BME280;41589;51.196;7.074;2024-01-11T00:55:01;100298.31;;;0.47;51.18
19576;BME280;41589;51.196;7.074;2024-01-11T01:00:02;100294.75;;;0.47;51.34
19576;BME280;41589;51.196;7.074;2024-01-11T01:05:02;100296.34;;;0.48;51.35
19576;BME280;41589;51.196;7.074;2024-01-11T01:10:03;100300.81;;;0.52;51.51
19576;BME280;41589;51.196;7.074;2024-01-11T01:15:04;100303.97;;;0.51;50.93
19576;BME280;41589;51.196;7.074;2024-01-11T01:20:05;100308.25;;;0.48;51.49
19576;BME280;41589;51.196;7.074;2024-01-11T01:25:05;100300.28;;;0.47;51.74
19576;BME280;41589;51.196;7.074;2024-01-11T01:30:06;100299.06;;;0.44;51.46
19576;BME280;41589;51.196;7.074;2024-01-11T01:35:07;100304.97;;;0.43;51.91
19576;BME280;41589;51.196;7.074;2024-01-11T01:40:08;100301.03;;;0.44;51.71
19576;BME280;41589;51.196;7.074;2024-01-11T01:45:09;100316.50;;;0.45;51.46
19576;BME280;41589;51.196;7.074;2024-01-11T01:50:11;100316.84;;;0.43;51.25
19576;BME280;41589;51.196;7.074;2024-01-11T01:55:12;100312.91;;;0.44;51.29
19576;BME280;41589;51.196;7.074;2024-01-11T02:00:15;100318.53;;;0.48;51.60
19576;BME280;41589;51.196;7.074;2024-01-11T02:05:16;100304.38;;;0.53;51.72
19576;BME280;41589;51.196;7.074;2024-01-11T02:10:16;100313.06;;;0.51;51.18
19576;BME280;41589;51.196;7.074;2024-01-11T02:15:17;100315.38;;;0.49;51.56
19576;BME280;41589;51.196;7.074;2024-01-11T02:20:18;100303.00;;;0.43;51.94
19576;BME280;41589;51.196;7.074;2024-01-11T02:25:18;100294.69;;;0.43;51.51
19576;BME280;41589;51.196;7.074;2024-01-11T02:30:18;100318.88;;;0.46;51.36
19576;BME280;41589;51.196;7.074;2024-01-11T02:35:19;100316.50;;;0.45;51.92
19576;BME280;41589;51.196;7.074;2024-01-11T02:40:20;100308.47;;;0.40;51.37
19576;BME280;41589;51.196;7.074;2024-01-11T02:45:20;100310.78;;;0.38;51.59
19576;BME280;41589;51.196;7.074;2024-01-11T02:50:20;100318.25;;;0.34;51.86
19576;BME280;41589;51.196;7.074;2024-01-11T02:55:21;100309.94;;;0.34;51.59
19576;BME280;41589;51.196;7.074;2024-01-11T03:00:21;100291.28;;;0.30;51.98
19576;BME280;41589;51.196;7.074;2024-01-11T03:05:22;100293.91;;;0.23;51.39
19576;BME280;41589;51.196;7.074;2024-01-11T03:10:22;100290.69;;;0.21;52.27
19576;BME280;41589;51.196;7.074;2024-01-11T03:15:22;100299.06;;;0.25;52.28
19576;BME280;41589;51.196;7.074;2024-01-11T03:20:22;100292.31;;;0.22;52.25
19576;BME280;41589;51.196;7.074;2024-01-11T03:25:24;100299.00;;;0.21;51.79
19576;BME280;41589;51.196;7.074;2024-01-11T03:30:25;100302.16;;;0.20;51.57
19576;BME280;41589;51.196;7.074;2024-01-11T03:35:25;100286.66;;;0.19;52.23
19576;BME280;41589;51.196;7.074;2024-01-11T03:40:26;100302.84;;;0.17;52.25
19576;BME280;41589;51.196;7.074;2024-01-11T03:45:26;100292.66;;;0.21;52.00
19576;BME280;41589;51.196;7.074;2024-01-11T03:50:27;100308.41;;;0.17;52.32
19576;BME280;41589;51.196;7.074;2024-01-11T03:55:27;100306.28;;;0.10;51.70
19576;BME280;41589;51.196;7.074;2024-01-11T04:00:27;100301.34;;;-0.00;52.31
19576;BME280;41589;51.196;7.074;2024-01-11T04:05:28;100300.16;;;0.01;52.66
19576;BME280;41589;51.196;7.074;2024-01-11T04:10:28;100307.25;;;-0.02;52.66
19576;BME280;41589;51.196;7.074;2024-01-11T04:15:28;100311.44;;;-0.08;52.20
19576;BME280;41589;51.196;7.074;2024-01-11T04:20:29;100322.88;;;-0.09;52.19
19576;BME280;41589;51.196;7.074;2024-01-11T04:25:29;100331.56;;;-0.11;51.96
19576;BME280;41589;51.196;7.074;2024-01-11T04:30:31;100322.34;;;-0.15;52.19
19576;BME280;41589;51.196;7.074;2024-01-11T04:35:31;100328.69;;;-0.14;52.42
19576;BME280;41589;51.196;7.074;2024-01-11T04:40:32;100337.47;;;-0.12;52.13
19576;BME280;41589;51.196;7.074;2024-01-11T04:45:32;100335.81;;;-0.13;52.18
19576;BME280;41589;51.196;7.074;2024-01-11T04:50:32;100336.91;;;-0.18;52.04
19576;BME280;41589;51.196;7.074;2024-01-11T04:55:32;100341.66;;;-0.18;52.45
19576;BME280;41589;51.196;7.074;2024-01-11T05:00:33;100328.09;;;-0.23;52.49
19576;BME280;41589;51.196;7.074;2024-01-11T05:05:33;100341.03;;;-0.28;52.27
19576;BME280;41589;51.196;7.074;2024-01-11T05:10:36;100337.78;;;-0.33;52.54
19576;BME280;41589;51.196;7.074;2024-01-11T05:15:36;100341.84;;;-0.27;53.07
19576;BME280;41589;51.196;7.074;2024-01-11T05:20:37;100328.38;;;-0.29;52.59
19576;BME280;41589;51.196;7.074;2024-01-11T05:25:37;100333.19;;;-0.26;52.08
19576;BME280;41589;51.196;7.074;2024-01-11T05:30:37;100340.78;;;-0.38;52.17
19576;BME280;41589;51.196;7.074;2024-01-11T05:35:38;100334.63;;;-0.32;52.66
19576;BME280;41589;51.196;7.074;2024-01-11T05:40:38;100336.06;;;-0.38;52.75
19576;BME280;41589;51.196;7.074;2024-01-11T05:45:38;100346.69;;;-0.40;52.41
19576;BME280;41589;51.196;7.074;2024-01-11T05:50:39;100349.91;;;-0.38;52.97
19576;BME280;41589;51.196;7.074;2024-01-11T05:55:39;100361.69;;;-0.41;52.36
19576;BME280;41589;51.196;7.074;2024-01-11T06:00:40;100363.00;;;-0.35;53.26
19576;BME280;41589;51.196;7.074;2024-01-11T06:05:41;100374.63;;;-0.29;52.48
19576;BME280;41589;51.196;7.074;2024-01-11T06:10:42;100373.09;;;-0.27;52.79
19576;BME280;41589;51.196;7.074;2024-01-11T06:15:42;100364.72;;;-0.30;52.70
19576;BME280;41589;51.196;7.074;2024-01-11T06:20:42;100372.03;;;-0.38;52.51
19576;BME280;41589;51.196;7.074;2024-01-11T06:25:43;100372.22;;;-0.31;53.09
19576;BME280;41589;51.196;7.074;2024-01-11T06:30:43;100361.84;;;-0.18;52.90
19576;BME280;41589;51.196;7.074;2024-01-11T06:35:43;100359.13;;;-0.14;52.09
19576;BME280;41589;51.196;7.074;2024-01-11T06:40:44;100366.38;;;-0.10;52.24
19576;BME280;41589;51.196;7.074;2024-01-11T06:45:44;100368.81;;;0.11;52.15
19576;BME280;41589;51.196;7.074;2024-01-11T06:50:45;100355.56;;;0.20;52.24
19576;BME280;41589;51.196;7.074;2024-01-11T06:55:45;100379.13;;;0.30;52.81
19576;BME280;41589;51.196;7.074;2024-01-11T07:00:49;100366.88;;;0.31;51.91
19576;BME280;41589;51.196;7.074;2024-01-11T07:05:49;100379.25;;;0.37;52.61
19576;BME280;41589;51.196;7.074;2024-01-11T07:10:51;100382.75;;;0.34;52.13
19576;BME280;41589;51.196;7.074;2024-01-11T07:15:52;100401.13;;;0.23;51.64
19576;BME280;41589;51.196;7.074;2024-01-11T07:20:52;100408.63;;;0.22;51.81
19576;BME280;41589;51.196;7.074;2024-01-11T07:25:53;100410.16;;;0.20;51.91
19576;BME280;41589;51.196;7.074;2024-01-11T07:30:53;100418.72;;;0.15;51.70
19576;BME280;41589;51.196;7.074;2024-01-11T07:35:54;100432.56;;;0.15;52.04
19576;BME280;41589;51.196;7.074;2024-01-11T07:40:55;100430.91;;;0.10;52.34
19576;BME280;41589;51.196;7.074;2024-01-11T07:45:56;100449.56;;;0.13;52.18
19576;BME280;41589;51.196;7.074;2024-01-11T07:50:57;100445.09;;;0.09;52.20
19576;BME280;41589;51.196;7.074;2024-01-11T07:55:58;100443.03;;;0.06;52.41
19576;BME280;41589;51.196;7.074;2024-01-11T08:00:58;100442.16;;;0.01;51.62
19576;BME280;41589;51.196;7.074;2024-01-11T08:05:58;100423.50;;;-0.02;52.05
19576;BME280;41589;51.196;7.074;2024-01-11T08:11:00;100427.78;;;-0.04;52.22
19576;BME280;41589;51.196;7.074;2024-01-11T08:16:01;100425.91;;;-0.00;51.60
19576;BME280;41589;51.196;7.074;2024-01-11T08:21:04;100434.47;;;0.11;52.05
19576;BME280;41589;51.196;7.074;2024-01-11T08:26:11;100432.66;;;0.18;51.98
19576;BME280;41589;51.196;7.074;2024-01-11T08:31:12;100438.66;;;0.20;51.39
19576;BME280;41589;51.196;7.074;2024-01-11T08:36:12;100425.25;;;0.22;51.81
19576;BME280;41589;51.196;7.074;2024-01-11T08:41:13;100421.91;;;0.33;51.54
19576;BME280;41589;51.196;7.074;2024-01-11T08:46:23;100430.59;;;0.31;51.62
19576;BME280;41589;51.196;7.074;2024-01-11T08:51:23;100433.41;;;0.35;52.41
19576;BME280;41589;51.196;7.074;2024-01-11T08:56:24;100451.00;;;0.42;52.03
19576;BME280;41589;51.196;7.074;2024-01-11T09:01:24;100459.81;;;0.48;52.17
19576;BME280;41589;51.196;7.074;2024-01-11T09:06:25;100451.94;;;0.50;52.05
19576;BME280;41589;51.196;7.074;2024-01-11T09:11:26;100459.19;;;0.54;52.18
19576;BME280;41589;51.196;7.074;2024-01-11T09:16:26;100459.25;;;0.58;52.44
19576;BME280;41589;51.196;7.074;2024-01-11T09:21:26;100467.66;;;0.62;52.89
19576;BME280;41589;51.196;7.074;2024-01-11T09:26:27;100469.34;;;0.66;52.36
19576;BME280;41589;51.196;7.074;2024-01-11T09:31:27;100483.63;;;0.68;52.16
19576;BME280;41589;51.196;7.074;2024-01-11T09:36:27;100488.97;;;0.77;52.80
19576;BME280;41589;51.196;7.074;2024-01-11T09:41:29;100484.81;;;0.86;52.87
19576;BME280;41589;51.196;7.074;2024-01-11T09:46:31;100490.94;;;0.96;52.58
19576;BME280;41589;51.196;7.074;2024-01-11T09:51:34;100490.78;;;1.08;53.30
19576;BME280;41589;51.196;7.074;2024-01-11T09:56:34;100490.25;;;1.22;53.40
19576;BME280;41589;51.196;7.074;2024-01-11T10:01:35;100488.44;;;1.29;53.41
19576;BME280;41589;51.196;7.074;2024-01-11T10:06:38;100490.19;;;1.37;53.62
19576;BME280;41589;51.196;7.074;2024-01-11T10:11:38;100492.59;;;1.39;53.48
19576;BME280;41589;51.196;7.074;2024-01-11T10:16:41;100488.63;;;1.40;53.33
19576;BME280;41589;51.196;7.074;2024-01-11T10:21:42;100482.84;;;1.48;53.58
19576;BME280;41589;51.196;7.074;2024-01-11T10:26:43;100486.50;;;1.53;53.77
19576;BME280;41589;51.196;7.074;2024-01-11T10:31:43;100487.38;;;1.57;53.31
19576;BME280;41589;51.196;7.074;2024-01-11T10:36:43;100504.59;;;1.66;53.33
19576;BME280;41589;51.196;7.074;2024-01-11T10:41:51;100501.81;;;1.66;53.46
19576;BME280;41589;51.196;7.074;2024-01-11T10:46:55;100501.25;;;1.80;53.90
19576;BME280;41589;51.196;7.074;2024-01-11T10:52:02;100497.69;;;1.79;53.33
19576;BME280;41589;51.196;7.074;2024-01-11T10:57:04;100514.56;;;1.93;52.42
19576;BME280;41589;51.196;7.074;2024-01-11T11:02:05;100509.28;;;2.08;51.50
19576;BME280;41589;51.196;7.074;2024-01-11T11:07:14;100508.31;;;2.23;51.83
19576;BME280;41589;51.196;7.074;2024-01-11T11:12:16;100500.81;;;2.50;51.05
19576;BME280;41589;51.196;7.074;2024-01-11T11:17:16;100501.75;;;2.61;51.00
19576;BME280;41589;51.196;7.074;2024-01-11T11:22:17;100498.31;;;2.71;50.03
19576;BME280;41589;51.196;7.074;2024-01-11T11:27:19;100481.81;;;2.85;49.56
19576;BME280;41589;51.196;7.074;2024-01-11T11:32:34;100499.84;;;2.99;48.93
19576;BME280;41589;51.196;7.074;2024-01-11T11:37:37;100488.63;;;3.21;48.61
19576;BME280;41589;51.196;7.074;2024-01-11T11:42:39;100490.34;;;3.33;48.83
19576;BME280;41589;51.196;7.074;2024-01-11T11:47:40;100502.00;;;3.46;47.54
19576;BME280;41589;51.196;7.074;2024-01-11T11:52:42;100496.94;;;3.55;47.21
19576;BME280;41589;51.196;7.074;2024-01-11T11:57:45;100497.00;;;3.62;46.91
19576;BME280;41589;51.196;7.074;2024-01-11T12:02:47;100483.72;;;3.86;46.07
19576;BME280;41589;51.196;7.074;2024-01-11T12:07:47;100474.63;;;3.92;45.49
19576;BME280;41589;51.196;7.074;2024-01-11T12:12:48;100448.75;;;3.92;45.35
19576;BME280;41589;51.196;7.074;2024-01-11T12:17:50;100444.13;;;4.10;45.18
19576;BME280;41589;51.196;7.074;2024-01-11T12:22:50;100437.03;;;4.23;44.63
19576;BME280;41589;51.196;7.074;2024-01-11T12:27:51;100439.16;;;4.44;45.77
19576;BME280;41589;51.196;7.074;2024-01-11T12:32:56;100441.28;;;4.65;46.00
19576;BME280;41589;51.196;7.074;2024-01-11T12:38:01;100435.69;;;4.65;45.18
19576;BME280;41589;51.196;7.074;2024-01-11T12:43:05;100447.69;;;4.76;46.15
19576;BME280;41589;51.196;7.074;2024-01-11T12:48:09;100461.28;;;4.81;46.36
19576;BME280;41589;51.196;7.074;2024-01-11T12:53:11;100469.59;;;4.71;43.70
19576;BME280;41589;51.196;7.074;2024-01-11T12:58:20;100477.47;;;4.54;43.01
19576;BME280;41589;51.196;7.074;2024-01-11T13:03:25;100466.38;;;4.61;42.94
19576;BME280;41589;51.196;7.074;2024-01-11T13:08:27;100467.22;;;4.76;43.08
19576;BME280;41589;51.196;7.074;2024-01-11T13:13:29;100472.91;;;4.90;43.50
19576;BME280;41589;51.196;7.074;2024-01-11T13:18:30;100476.94;;;5.04;43.62
19576;BME280;41589;51.196;7.074;2024-01-11T13:23:31;100457.78;;;4.99;42.87
19576;BME280;41589;51.196;7.074;2024-01-11T13:28:33;100452.53;;;4.86;43.55
19576;BME280;41589;51.196;7.074;2024-01-11T13:33:33;100457.69;;;4.81;43.23
19576;BME280;41589;51.196;7.074;2024-01-11T13:38:34;100454.41;;;4.61;42.39
19576;BME280;41589;51.196;7.074;2024-01-11T13:43:34;100450.44;;;4.65;42.59
19576;BME280;41589;51.196;7.074;2024-01-11T13:48:35;100465.91;;;4.56;41.33
19576;BME280;41589;51.196;7.074;2024-01-11T13:53:35;100459.13;;;4.50;41.52
19576;BME280;41589;51.196;7.074;2024-01-11T13:58:36;100452.72;;;4.46;41.26
19576;BME280;41589;51.196;7.074;2024-01-11T14:03:36;100455.94;;;4.48;41.17
19576;BME280;41589;51.196;7.074;2024-01-11T14:08:37;100447.50;;;4.37;41.04
19576;BME280;41589;51.196;7.074;2024-01-11T14:13:37;100450.88;;;4.09;40.37
19576;BME280;41589;51.196;7.074;2024-01-11T14:18:38;100445.25;;;4.02;40.48
19576;BME280;41589;51.196;7.074;2024-01-11T14:23:38;100447.25;;;4.01;40.14
19576;BME280;41589;51.196;7.074;2024-01-11T14:28:38;100457.25;;;4.10;40.18
19576;BME280;41589;51.196;7.074;2024-01-11T14:33:42;100456.47;;;4.13;39.84
19576;BME280;41589;51.196;7.074;2024-01-11T14:38:43;100456.88;;;4.11;39.63
19576;BME280;41589;51.196;7.074;2024-01-11T14:43:43;100447.63;;;4.00;39.27
19576;BME280;41589;51.196;7.074;2024-01-11T14:48:43;100449.28;;;4.04;40.09
19576;BME280;41589;51.196;7.074;2024-01-11T14:53:44;100455.28;;;4.14;39.94
19576;BME280;41589;51.196;7.074;2024-01-11T14:58:44;100467.22;;;4.14;39.82
19576;BME280;41589;51.196;7.074;2024-01-11T15:03:44;100454.41;;;4.02;39.30
19576;BME280;41589;51.196;7.074;2024-01-11T15:08:45;100462.34;;;3.97;40.06
19576;BME280;41589;51.196;7.074;2024-01-11T15:13:45;100458.56;;;3.78;39.26
19576;BME280;41589;51.196;7.074;2024-01-11T15:18:46;100467.28;;;3.73;39.66
19576;BME280;41589;51.196;7.074;2024-01-11T15:23:46;100472.38;;;3.64;39.83
19576;BME280;41589;51.196;7.074;2024-01-11T15:28:47;100479.44;;;3.55;40.16
19576;BME280;41589;51.196;7.074;2024-01-11T15:33:50;100491.78;;;3.57;40.15
19576;BME280;41589;51.196;7.074;2024-01-11T15:38:50;100484.81;;;3.37;40.00
19576;BME280;41589;51.196;7.074;2024-01-11T15:43:51;100500.06;;;3.13;40.33
19576;BME280;41589;51.196;7.074;2024-01-11T15:48:51;100516.13;;;3.30;41.01
19576;BME280;41589;51.196;7.074;2024-01-11T15:53:52;100529.00;;;3.08;40.40
19576;BME280;41589;51.196;7.074;2024-01-11T15:58:52;100536.59;;;3.11;41.18
19576;BME280;41589;51.196;7.074;2024-01-11T16:03:53;100530.84;;;2.97;41.11
19576;BME280;41589;51.196;7.074;2024-01-11T16:08:53;100533.16;;;2.91;41.29
19576;BME280;41589;51.196;7.074;2024-01-11T16:13:53;100535.34;;;2.79;41.72
19576;BME280;41589;51.196;7.074;2024-01-11T16:18:54;100538.75;;;2.65;41.75
19576;BME280;41589;51.196;7.074;2024-01-11T16:23:55;100535.00;;;2.54;41.73
19576;BME280;41589;51.196;7.074;2024-01-11T16:28:58;100536.97;;;2.53;42.31
19576;BME280;41589;51.196;7.074;2024-01-11T16:33:58;100540.59;;;2.57;42.39
19576;BME280;41589;51.196;7.074;2024-01-11T16:38:58;100538.81;;;2.42;42.32
19576;BME280;41589;51.196;7.074;2024-01-11T16:44:04;100517.06;;;2.25;42.99
19576;BME280;41589;51.196;7.074;2024-01-11T16:49:04;100524.16;;;2.19;43.71
19576;BME280;41589;51.196;7.074;2024-01-11T16:54:04;100528.09;;;2.18;43.53
19576;BME280;41589;51.196;7.074;2024-01-11T16:59:05;100529.06;;;2.06;44.13
19576;BME280;41589;51.196;7.074;2024-01-11T17:04:05;100534.81;;;1.94;43.90
19576;BME280;41589;51.196;7.074;2024-01-11T17:09:06;100532.03;;;1.71;45.20
19576;BME280;41589;51.196;7.074;2024-01-11T17:14:07;100528.50;;;1.74;45.87
19576;BME280;41589;51.196;7.074;2024-01-11T17:19:08;100529.50;;;1.62;46.67
19576;BME280;41589;51.196;7.074;2024-01-11T17:24:08;100531.34;;;1.55;47.93
19576;BME280;41589;51.196;7.074;2024-01-11T17:29:08;100540.72;;;1.46;49.84
19576;BME280;41589;51.196;7.074;2024-01-11T17:34:09;100555.78;;;1.68;50.01
19576;BME280;41589;51.196;7.074;2024-01-11T17:39:09;100553.81;;;1.69;49.78
19576;BME280;41589;51.196;7.074;2024-01-11T17:44:09;100545.78;;;1.64;51.07
19576;BME280;41589;51.196;7.074;2024-01-11T17:49:10;100549.16;;;1.54;51.97
19576;BME280;41589;51.196;7.074;2024-01-11T17:54:10;100538.38;;;1.71;52.22
19576;BME280;41589;51.196;7.074;2024-01-11T17:59:10;100533.81;;;1.83;53.18
19576;BME280;41589;51.196;7.074;2024-01-11T18:04:11;100540.06;;;1.99;53.21
19576;BME280;41589;51.196;7.074;2024-01-11T18:09:11;100524.16;;;2.19;53.84
19576;BME280;41589;51.196;7.074;2024-01-11T18:14:12;100510.97;;;2.39;53.55
19576;BME280;41589;51.196;7.074;2024-01-11T18:19:12;100498.03;;;2.50;53.87
19576;BME280;41589;51.196;7.074;2024-01-11T18:24:13;100505.44;;;2.42;53.92
19576;BME280;41589;51.196;7.074;2024-01-11T18:29:14;100508.38;;;2.53;54.41
19576;BME280;41589;51.196;7.074;2024-01-11T18:34:14;100512.53;;;2.66;54.29
19576;BME280;41589;51.196;7.074;2024-01-11T18:39:15;100525.53;;;2.58;54.62
19576;BME280;41589;51.196;7.074;2024-01-11T18:44:18;100521.94;;;2.58;54.80
19576;BME280;41589;51.196;7.074;2024-01-11T18:49:20;100523.34;;;2.71;55.40
19576;BME280;41589;51.196;7.074;2024-01-11T18:54:20;100521.94;;;2.84;55.25
19576;BME280;41589;51.196;7.074;2024-01-11T18:59:20;100512.94;;;2.95;55.56
19576;BME280;41589;51.196;7.074;2024-01-11T19:04:21;100526.94;;;3.02;55.39
19576;BME280;41589;51.196;7.074;2024-01-11T19:09:22;100525.81;;;3.10;55.54
19576;BME280;41589;51.196;7.074;2024-01-11T19:14:26;100527.88;;;3.13;55.41
19576;BME280;41589;51.196;7.074;2024-01-11T19:19:27;100524.31;;;3.16;55.61
19576;BME280;41589;51.196;7.074;2024-01-11T19:24:27;100518.06;;;3.22;55.84
19576;BME280;41589;51.196;7.074;2024-01-11T19:29:27;100525.97;;;3.20;55.38
19576;BME280;41589;51.196;7.074;2024-01-11T19:34:30;100528.41;;;3.26;56.16
19576;BME280;41589;51.196;7.074;2024-01-11T19:39:31;100533.63;;;3.31;55.80
19576;BME280;41589;51.196;7.074;2024-01-11T19:44:31;100528.94;;;3.35;56.12
19576;BME280;41589;51.196;7.074;2024-01-11T19:49:32;100550.81;;;3.36;56.01
19576;BME280;41589;51.196;7.074;2024-01-11T19:54:33;100542.88;;;3.38;56.50
19576;BME280;41589;51.196;7.074;2024-01-11T19:59:33;100542.16;;;3.45;56.50
19576;BME280;41589;51.196;7.074;2024-01-11T20:04:34;100547.34;;;3.46;56.66
19576;BME280;41589;51.196;7.074;2024-01-11T20:09:34;100553.31;;;3.45;56.71
19576;BME280;41589;51.196;7.074;2024-01-11T20:14:34;100546.09;;;3.40;56.99
19576;BME280;41589;51.196;7.074;2024-01-11T20:19:36;100554.06;;;3.42;56.91
19576;BME280;41589;51.196;7.074;2024-01-11T20:24:36;100550.13;;;3.46;57.19
19576;BME280;41589;51.196;7.074;2024-01-11T20:29:37;100543.78;;;3.46;57.72
19576;BME280;41589;51.196;7.074;2024-01-11T20:34:37;100556.03;;;3.41;57.14
19576;BME280;41589;51.196;7.074;2024-01-11T20:39:38;100562.78;;;3.40;57.10
19576;BME280;41589;51.196;7.074;2024-01-11T20:44:40;100570.69;;;3.35;58.18
19576;BME280;41589;51.196;7.074;2024-01-11T20:49:41;100565.06;;;3.31;57.90
19576;BME280;41589;51.196;7.074;2024-01-11T20:54:41;100560.63;;;3.27;57.49
19576;BME280;41589;51.196;7.074;2024-01-11T20:59:43;100578.38;;;3.15;58.40
19576;BME280;41589;51.196;7.074;2024-01-11T21:04:43;100576.53;;;2.96;58.33
19576;BME280;41589;51.196;7.074;2024-01-11T21:09:44;100581.78;;;2.75;58.87
19576;BME280;41589;51.196;7.074;2024-01-11T21:14:44;100574.56;;;2.70;59.42
19576;BME280;41589;51.196;7.074;2024-01-11T21:19:45;100572.78;;;2.58;59.00
19576;BME280;41589;51.196;7.074;2024-01-11T21:24:46;100580.22;;;2.51;59.41
19576;BME280;41589;51.196;7.074;2024-01-11T21:29:47;100597.28;;;2.26;60.53
19576;BME280;41589;51.196;7.074;2024-01-11T21:34:47;100587.50;;;2.59;62.11
19576;BME280;41589;51.196;7.074;2024-01-11T21:39:48;100591.16;;;2.63;60.81
19576;BME280;41589;51.196;7.074;2024-01-11T21:44:49;100583.22;;;2.39;60.71
19576;BME280;41589;51.196;7.074;2024-01-11T21:49:50;100577.59;;;2.35;61.52
19576;BME280;41589;51.196;7.074;2024-01-11T21:54:51;100569.16;;;2.54;62.62
19576;BME280;41589;51.196;7.074;2024-01-11T21:59:52;100570.88;;;2.62;62.51
19576;BME280;41589;51.196;7.074;2024-01-11T22:04:52;100576.38;;;2.85;62.28
19576;BME280;41589;51.196;7.074;2024-01-11T22:09:52;100577.41;;;2.74;61.86
19576;BME280;41589;51.196;7.074;2024-01-11T22:14:53;100576.41;;;2.59;62.25
19576;BME280;41589;51.196;7.074;2024-01-11T22:19:53;100579.09;;;2.55;63.21
19576;BME280;41589;51.196;7.074;2024-01-11T22:24:53;100573.28;;;2.64;62.34
19576;BME280;41589;51.196;7.074;2024-01-11T22:29:54;100581.09;;;2.55;63.35
19576;BME280;41589;51.196;7.074;2024-01-11T22:34:54;100574.72;;;2.54;62.34
19576;BME280;41589;51.196;7.074;2024-01-11T22:39:54;100578.47;;;2.39;63.98
19576;BME280;41589;51.196;7.074;2024-01-11T22:44:55;100575.22;;;2.37;63.40
19576;BME280;41589;51.196;7.074;2024-01-11T22:49:55;100575.13;;;2.30;63.40
19576;BME280;41589;51.196;7.074;2024-01-11T22:54:55;100565.00;;;2.41;64.05
19576;BME280;41589;51.196;7.074;2024-01-11T22:59:56;100553.50;;;2.43;64.40
19576;BME280;41589;51.196;7.074;2024-01-11T23:04:56;100558.50;;;2.33;64.73
19576;BME280;41589;51.196;7.074;2024-01-11T23:09:56;100552.06;;;2.52;65.32
19576;BME280;41589;51.196;7.074;2024-01-11T23:14:57;100555.63;;;2.53;65.36
19576;BME280;41589;51.196;7.074;2024-01-11T23:19:57;100561.13;;;2.76;66.05
19576;BME280;41589;51.196;7.074;2024-01-11T23:24:57;100573.47;;;2.78;64.13
19576;BME280;41589;51.196;7.074;2024-01-11T23:29:58;100572.91;;;2.66;64.55
19576;BME280;41589;51.196;7.074;2024-01-11T23:34:59;100572.22;;;2.72;65.65
19576;BME280;41589;51.196;7.074;2024-01-11T23:40:00;100573.41;;;2.71;64.92
19576;BME280;41589;51.196;7.074;2024-01-11T23:45:00;100567.34;;;2.66;65.00
19576;BME280;41589;51.196;7.074;2024-01-11T23:50:02;100564.34;;;2.78;65.58
19576;BME280;41589;51.196;7.074;2024-01-11T23:55:03;100567.47;;;2.73;66.27
